createdAt,value
2022-10-21T00:55:04.920Z,100716.38
2022-10-21T00:57:35.660Z,100710.44
2022-10-21T01:00:32.593Z,100711.94
2022-10-21T01:02:59.951Z,100713.25
2022-10-21T01:05:27.115Z,100706.06
2022-10-21T01:07:54.196Z,100706.66
2022-10-21T01:10:21.077Z,100703.59
2022-10-21T04:00:13.914Z,100642.50
2022-10-21T04:08:18.114Z,100639.97
2022-10-21T05:01:32.178Z,100582.81
2022-10-21T05:03:58.946Z,100581.38
2022-10-21T05:06:25.577Z,100588.38
2022-10-21T05:08:52.191Z,100591.59
2022-10-21T05:11:18.809Z,100591.28
2022-10-21T05:13:45.612Z,100591.84
2022-10-21T05:16:12.325Z,100595.44
2022-10-21T05:19:03.120Z,100600.66
2022-10-21T05:27:19.083Z,100583.50
2022-10-21T05:29:45.710Z,100586.59
2022-10-21T05:32:12.275Z,100601.72
2022-10-21T05:34:38.867Z,100601.75
2022-10-21T05:37:05.440Z,100594.50
2022-10-21T05:39:32.052Z,100592.16
2022-10-21T05:41:58.661Z,100598.94
2022-10-21T05:44:25.226Z,100615.50
2022-10-21T05:46:51.884Z,100615.25
2022-10-21T05:49:18.442Z,100610.78
2022-10-21T05:51:45.503Z,100603.50
2022-10-21T05:54:12.158Z,100593.63
2022-10-21T06:04:37.920Z,100602.66
2022-10-21T06:07:14.472Z,100618.12
2022-10-21T06:20:45.897Z,100638.13
2022-10-21T06:23:13.055Z,100649.88
2022-10-21T07:29:26.771Z,100628.84
2022-10-21T07:59:31.117Z,100618.62
2022-10-21T08:01:57.701Z,100612.75
2022-10-21T08:04:29.627Z,100618.59
2022-10-21T08:06:56.748Z,100607.00
2022-10-21T08:15:08.866Z,100592.34
2022-10-21T08:17:35.653Z,100603.56
2022-10-21T08:20:02.708Z,100604.97
2022-10-21T08:22:51.219Z,100583.06
2022-10-21T08:33:16.233Z,100586.94
2022-10-21T08:35:43.579Z,100577.06
2022-10-21T08:38:10.945Z,100579.53
2022-10-21T08:43:35.374Z,100575.16
2022-10-21T08:46:03.715Z,100564.81
2022-10-21T08:49:07.289Z,100558.75
2022-10-21T09:31:43.624Z,100524.63
2022-10-21T09:34:38.964Z,100523.12
2022-10-21T09:37:35.442Z,100521.63
2022-10-21T09:40:16.397Z,100513.44
2022-10-21T09:42:47.332Z,100503.84
2022-10-21T10:04:30.130Z,100480.06
2022-10-21T10:07:49.810Z,100470.16
2022-10-21T10:11:05.682Z,100465.13
2022-10-21T10:16:23.184Z,100456.59
2022-10-21T10:19:25.891Z,100450.03
2022-10-21T10:26:48.411Z,100434.34
2022-10-21T10:32:01.495Z,100422.12
2022-10-21T10:34:37.792Z,100426.19
2022-10-21T10:40:41.947Z,100424.66
2022-10-21T10:43:28.950Z,100419.81
2022-10-21T10:45:59.323Z,100419.06
2022-10-21T10:48:43.292Z,100406.72
2022-10-21T10:51:27.841Z,100404.81
2022-10-21T10:54:21.342Z,100402.59
2022-10-21T10:56:47.841Z,100392.50
2022-10-21T10:59:23.322Z,100390.91
2022-10-21T11:01:56.397Z,100389.69
2022-10-21T11:04:46.733Z,100373.34
2022-10-21T11:07:29.008Z,100364.47
2022-10-21T11:10:02.752Z,100365.03
2022-10-21T11:12:29.294Z,100368.25
2022-10-21T11:17:41.071Z,100370.03
2022-10-21T11:20:31.069Z,100361.53
2022-10-21T11:23:12.602Z,100361.03
2022-10-21T11:26:03.203Z,100348.25
2022-10-21T11:28:31.422Z,100352.00
2022-10-21T11:31:09.875Z,100340.47
2022-10-21T11:36:33.605Z,100341.41
2022-10-21T11:41:48.507Z,100331.50
2022-10-21T11:44:33.333Z,100320.09
2022-10-21T11:47:24.720Z,100306.25
2022-10-21T11:50:03.634Z,100305.47
2022-10-21T11:52:33.066Z,100306.56
2022-10-21T11:55:14.662Z,100309.06
2022-10-21T11:58:05.806Z,100311.66
2022-10-21T12:01:09.740Z,100298.66
2022-10-21T12:04:05.621Z,100311.75
2022-10-21T12:06:49.819Z,100299.84
2022-10-21T12:09:43.747Z,100286.44
2022-10-21T12:12:14.814Z,100280.94
2022-10-21T12:14:53.693Z,100290.00
2022-10-21T12:20:11.949Z,100280.38
2022-10-21T12:22:38.805Z,100275.03
2022-10-21T12:25:08.474Z,100280.75
2022-10-21T12:28:06.306Z,100284.56
2022-10-21T12:30:57.873Z,100283.41
2022-10-21T12:33:36.315Z,100279.22
2022-10-21T12:36:17.161Z,100272.34
2022-10-21T12:41:40.600Z,100272.28
2022-10-21T12:44:22.414Z,100261.34
2022-10-21T12:46:56.115Z,100262.66
2022-10-21T12:49:32.879Z,100249.59
2022-10-21T12:52:08.197Z,100254.47
2022-10-21T12:54:39.623Z,100240.13
2022-10-21T12:57:09.504Z,100233.69
2022-10-21T12:59:39.300Z,100236.53
2022-10-21T13:02:05.783Z,100237.50
2022-10-21T13:04:32.280Z,100237.34
2022-10-21T13:07:25.928Z,100229.28
2022-10-21T13:12:41.637Z,100231.13
2022-10-21T13:15:20.185Z,100235.75
2022-10-21T13:17:53.655Z,100229.00
2022-10-21T13:20:20.120Z,100237.84
2022-10-21T13:23:35.777Z,100227.47
2022-10-21T13:26:19.609Z,100224.53
2022-10-21T13:28:59.633Z,100213.81
2022-10-21T13:31:26.525Z,100204.66
2022-10-21T13:33:55.487Z,100209.31
2022-10-21T13:42:15.575Z,100204.25
2022-10-21T13:48:12.139Z,100196.72
2022-10-21T13:50:42.665Z,100193.97
2022-10-21T13:53:23.387Z,100188.06
2022-10-21T13:55:55.658Z,100190.47
2022-10-21T14:00:59.119Z,100180.00
2022-10-21T14:03:26.578Z,100188.75
2022-10-21T14:06:01.450Z,100182.47
2022-10-21T14:11:23.399Z,100176.94
2022-10-21T14:16:37.670Z,100170.94
2022-10-21T14:21:49.285Z,100163.00
2022-10-21T14:24:32.844Z,100159.72
2022-10-21T14:27:00.848Z,100165.84
2022-10-21T14:29:30.582Z,100160.66
2022-10-21T14:31:57.935Z,100153.72
2022-10-21T14:34:31.033Z,100144.09
2022-10-21T14:37:22.442Z,100150.56
2022-10-21T14:42:44.357Z,100149.13
2022-10-21T14:45:16.710Z,100155.06
2022-10-21T14:47:50.192Z,100144.25
2022-10-21T14:50:22.916Z,100156.44
2022-10-21T14:52:52.853Z,100146.69
2022-10-21T14:55:29.388Z,100149.75
2022-10-21T14:58:03.393Z,100144.16
2022-10-21T15:03:43.980Z,100153.19
2022-10-21T15:06:15.543Z,100152.37
2022-10-21T15:09:06.852Z,100142.13
2022-10-21T15:11:46.153Z,100137.84
2022-10-21T15:14:12.633Z,100144.53
2022-10-21T15:17:10.925Z,100135.78
2022-10-21T15:22:25.864Z,100117.19
2022-10-21T15:27:36.608Z,100112.81
2022-10-21T15:32:39.147Z,100133.31
2022-10-21T15:35:17.667Z,100127.03
2022-10-21T15:37:49.296Z,100123.59
2022-10-21T15:40:17.861Z,100121.94
2022-10-21T15:42:46.087Z,100110.56
2022-10-21T15:45:19.515Z,100129.28
2022-10-21T15:47:54.121Z,100126.84
2022-10-21T15:50:24.461Z,100124.06
2022-10-21T15:52:51.540Z,100124.91
2022-10-21T15:55:18.433Z,100127.41
2022-10-21T15:57:45.465Z,100126.72
2022-10-21T16:00:23.286Z,100125.59
2022-10-21T16:02:53.871Z,100118.09
2022-10-21T16:07:55.885Z,100118.03
2022-10-21T16:10:35.230Z,100109.94
2022-10-21T16:13:02.784Z,100116.66
2022-10-21T16:15:29.643Z,100127.72
2022-10-21T16:17:57.916Z,100125.53
2022-10-21T16:20:28.126Z,100125.72
2022-10-21T16:22:59.175Z,100133.22
2022-10-21T16:25:28.687Z,100123.16
2022-10-21T16:27:56.462Z,100130.09
2022-10-21T16:30:32.450Z,100138.72
2022-10-21T16:32:58.972Z,100136.41
2022-10-21T16:35:25.991Z,100134.38
2022-10-21T16:37:52.916Z,100135.59
2022-10-21T16:40:31.808Z,100127.78
2022-10-21T16:42:59.065Z,100136.97
2022-10-21T16:45:30.242Z,100128.84
2022-10-21T16:47:59.889Z,100137.56
2022-10-21T16:50:45.798Z,100137.81
2022-10-21T16:53:16.913Z,100134.03
2022-10-21T16:55:43.710Z,100120.41
2022-10-21T16:58:10.447Z,100116.59
2022-10-21T17:00:37.116Z,100119.22
2022-10-21T17:06:05.414Z,100124.28
2022-10-21T17:08:32.048Z,100120.62
2022-10-21T17:10:58.654Z,100122.63
2022-10-21T17:13:25.229Z,100119.13
2022-10-21T17:15:51.803Z,100123.44
2022-10-21T17:18:18.428Z,100127.94
2022-10-21T17:20:45.250Z,100109.97
2022-10-21T17:23:11.913Z,100113.06
2022-10-21T17:25:41.475Z,100117.66
2022-10-21T17:28:08.929Z,100123.34
2022-10-21T17:30:35.881Z,100129.66
2022-10-21T17:33:02.614Z,100125.22
2022-10-21T17:35:29.207Z,100128.09
2022-10-21T17:37:55.810Z,100123.66
2022-10-21T17:40:25.090Z,100118.19
2022-10-21T17:42:51.972Z,100112.88
2022-10-21T17:45:19.733Z,100104.31
2022-10-21T17:47:46.883Z,100108.03
2022-10-21T17:50:14.383Z,100105.88
2022-10-21T17:52:42.018Z,100104.53
2022-10-21T17:55:09.406Z,100123.13
2022-10-21T18:00:12.251Z,100113.25
2022-10-21T18:02:39.596Z,100112.25
2022-10-21T18:05:08.196Z,100103.94
2022-10-21T18:07:34.858Z,100101.37
2022-10-21T18:10:01.455Z,100106.69
2022-10-21T18:12:29.009Z,100106.97
2022-10-21T18:14:55.518Z,100101.78
2022-10-21T18:17:22.053Z,100101.50
2022-10-21T18:19:48.666Z,100084.81
2022-10-21T18:22:15.814Z,100091.22
2022-10-21T18:30:24.323Z,100096.09
2022-10-21T18:32:50.853Z,100099.13
2022-10-21T18:37:59.303Z,100085.44
2022-10-21T18:46:04.873Z,100077.81
2022-10-21T18:48:44.005Z,100083.06
2022-10-21T18:51:13.148Z,100075.25
2022-10-21T18:53:39.941Z,100073.47
2022-10-21T19:11:52.775Z,100054.19
2022-10-21T19:14:20.332Z,100048.19
2022-10-21T19:17:01.980Z,100043.22
2022-10-21T19:19:28.616Z,100051.41
2022-10-21T19:21:55.191Z,100045.25
2022-10-21T19:24:21.760Z,100051.50
2022-10-21T19:27:54.630Z,100044.91
2022-10-21T19:30:40.927Z,100042.66
2022-10-21T19:33:07.488Z,100047.69
2022-10-21T19:35:34.194Z,100053.47
2022-10-21T19:38:03.270Z,100044.50
2022-10-21T19:40:34.666Z,100032.91
2022-10-21T19:43:01.294Z,100049.47
2022-10-21T19:50:45.713Z,100050.03
2022-10-21T19:53:12.588Z,100044.91
2022-10-21T19:55:39.467Z,100046.59
2022-10-21T19:58:06.130Z,100048.69
2022-10-21T20:01:25.702Z,100040.13
2022-10-21T20:04:19.831Z,100037.75
2022-10-21T20:06:58.263Z,100030.66
2022-10-21T20:09:24.844Z,100030.75
2022-10-21T20:25:14.306Z,100032.25
2022-10-21T20:33:04.433Z,100035.41
2022-10-21T20:35:31.060Z,100026.78
2022-10-21T21:04:36.479Z,100031.09
2022-10-21T21:07:09.419Z,100043.94
2022-10-21T21:29:39.371Z,100015.69
2022-10-21T21:32:05.982Z,100025.06
2022-10-21T21:34:57.164Z,100033.59
2022-10-21T21:37:25.634Z,100028.94
2022-10-21T21:39:52.620Z,100024.81
2022-10-21T21:42:19.207Z,100015.03
2022-10-21T21:45:27.106Z,99998.06
2022-10-21T21:49:05.500Z,100004.09
2022-10-21T22:07:44.368Z,99985.72
2022-10-21T22:10:11.344Z,99992.53
2022-10-21T22:12:38.275Z,99998.84
2022-10-21T22:15:05.253Z,99997.03
2022-10-21T22:25:44.445Z,100011.06
2022-10-21T22:28:11.012Z,100006.69
2022-10-21T22:30:37.642Z,100012.75
2022-10-21T22:33:04.238Z,100010.03
2022-10-21T22:38:12.405Z,100016.78
2022-10-21T22:40:38.947Z,100016.28
2022-10-21T22:43:05.537Z,100006.44
2022-10-21T22:45:32.893Z,100000.56
2022-10-21T22:47:59.507Z,99996.75
2022-10-21T23:06:33.919Z,99988.03
2022-10-21T23:09:02.070Z,99988.09
2022-10-21T23:11:29.495Z,99984.31
2022-10-21T23:14:03.027Z,99987.97
2022-10-21T23:16:34.289Z,99986.25
2022-10-21T23:21:56.427Z,99980.88
2022-10-21T23:24:24.513Z,99984.84
2022-10-21T23:26:51.101Z,99992.19
2022-10-21T23:29:17.746Z,99980.81
2022-10-21T23:41:15.470Z,99974.09
2022-10-21T23:43:42.032Z,99976.13
2022-10-21T23:46:08.716Z,99977.59
2022-10-21T23:48:35.308Z,99982.81
2022-10-21T23:51:02.106Z,99987.13
2022-10-21T23:53:28.685Z,99988.75
